x

Potomac, Md (44042) Weather Station

5:20pm - Sat 22nd Jul 2017 All times are EDT. -4 hours from GMT.

  • Wind
    16mph, 18mph gusts
  • Air Temp 84°f
  • Sea Pressure 1008.5mb
  • Potomac, Md
  • Potomac, Md

More Historic Weather Station data

Upgrade to MSW Pro to gain access to the past 30 days of data for over 8000 Wavebouys and Weather Stations around the globe.

Join Pro

Comparision Forecast

View Surf forecast
   
Sat 07/22 5:20pm  -   -  16 18 mph 1008.5mb - 84f
5:10pm 0.3ft  -  18 22 mph 1008.8mb - 84f
5:00pm 0.3ft  -  16 22 mph 1008.8mb 86f 86f
4:50pm 0.3ft  -  7 9 mph 1008.5mb - 88f
4:40pm  -   -  7 9 mph 1008.5mb - 90f
4:30pm  -   -  2 4 mph 1008.5mb - 90f
4:20pm  -   -  2 2 mph 1008.6mb - 90f
4:10pm 0.7ft  -  4 4 mph 1008.6mb - 90f
4:00pm 0.7ft  -  4 7 mph 1008.7mb 87f 90f
3:50pm 0.7ft  -  4 7 mph 1008.9mb - 89f
3:40pm  -   -  7 7 mph 1009.1mb - 89f
3:30pm  -   -  7 9 mph 1009.3mb - 89f
3:20pm  -   -  7 9 mph 1009.3mb - 89f
3:10pm 0.3ft  -  7 9 mph 1009.5mb - 89f
3:00pm 0.3ft  -  7 7 mph 1009.5mb 88f 89f
2:50pm 0.3ft  -  7 7 mph 1009.6mb - 88f
2:40pm  -   -  4 7 mph 1009.7mb - 88f
2:30pm  -   -  7 7 mph 1009.9mb - 88f
2:20pm  -   -  7 7 mph 1010mb - 88f
2:10pm 0.7ft  -  7 7 mph 1010mb - 87f
2:00pm 0.7ft  -  4 7 mph 1010mb 86f 87f
1:50pm  -   -  7 9 mph 1010.2mb - 86f
1:40pm  -   -  9 9 mph 1010.5mb - 86f
1:30pm  -   -  7 9 mph 1010.5mb - 86f
1:20pm  -   -  7 7 mph 1010.5mb - 86f
1:10pm 0.7ft  -  4 7 mph 1010.6mb - 86f
1:00pm 0.7ft  -  7 7 mph 1010.7mb 86f 85f
12:50pm  -   -  7 7 mph 1010.7mb - 85f
12:40pm  -   -  7 7 mph 1010.7mb - 85f
12:30pm  -   -  7 9 mph 1010.8mb - 85f
12:20pm  -   -  7 9 mph 1010.9mb - 85f
12:10pm 1ft  -  9 9 mph 1011mb - 84f
12:00pm 1ft 2s 9 11 mph 1011.2mb 85f 84f
11:50am 1ft  -  11 13 mph 1011.5mb - 84f
11:40am  -   -  11 13 mph 1011.5mb - 84f
11:30am  -   -  11 13 mph 1011.6mb - 84f
11:20am  -   -  11 13 mph 1011.6mb - 84f
11:10am 1ft  -  11 13 mph 1011.4mb - 84f
11:00am 1ft 2s 11 13 mph 1011.4mb 85f 84f
10:50am 1ft  -  11 13 mph 1011.5mb - 84f
10:40am  -   -  11 13 mph 1011.5mb - 83f
10:30am  -   -  11 13 mph 1011.5mb - 83f
10:20am  -   -  11 13 mph 1011.5mb - 83f
10:10am 1ft  -  13 13 mph 1011.5mb - 83f
10:00am 1ft 2s 13 16 mph 1011.5mb 85f 83f
9:50am  -   -  13 16 mph 1011.5mb - 83f
9:40am  -   -  13 16 mph 1011.6mb - 83f
9:30am  -   -  13 16 mph 1011.6mb - 82f
9:20am  -   -  13 16 mph 1011.5mb - 82f
9:10am 1.3ft  -  13 16 mph 1011.5mb - 82f
9:00am 1.3ft 2s 13 16 mph 1011.5mb 84f 82f
8:50am  -   -  13 16 mph 1011.5mb - 82f
8:40am  -   -  13 18 mph 1011.6mb - 81f
8:30am  -   -  16 18 mph 1011.6mb - 81f
8:20am  -   -  16 18 mph 1011.6mb - 81f
8:10am 1ft  -  16 18 mph 1011.5mb - 81f
8:00am 1ft 3s 13 18 mph 1011.3mb 84f 81f
7:50am 1ft  -  16 18 mph 1011.3mb - 80f
7:40am  -   -  13 16 mph 1011mb - 80f
7:30am  -   -  13 18 mph 1010.8mb - 80f
7:20am  -   -  13 18 mph 1010.7mb - 80f
7:10am 1.3ft  -  13 16 mph 1010.5mb - 80f
7:00am 1.3ft 3s 13 16 mph 1010.5mb 84f 80f
6:50am 1.3ft  -  13 16 mph 1010.6mb - 80f
6:40am  -   -  13 16 mph 1010.5mb - 80f
6:30am  -   -  13 16 mph 1010.4mb - 80f
6:20am  -   -  11 16 mph 1010.4mb - 80f
6:10am 1.3ft  -  13 16 mph 1010.4mb - 81f
6:00am 1.3ft 2s 13 18 mph 1010.3mb 84f 81f
5:50am 1.3ft  -  16 18 mph 1010.3mb - 81f
5:40am  -   -  13 16 mph 1010.1mb - 81f
5:30am  -   -  16 18 mph 1010.1mb - 81f
5:20am  -   -  13 16 mph 1010.1mb - 81f
5:10am 1.3ft  -  13 16 mph 1010.1mb - 81f
5:00am 1.3ft 2s 13 16 mph 1010mb 84f 81f
4:50am 1.3ft  -  13 18 mph 1010mb - 81f
4:40am  -   -  16 18 mph 1010mb - 81f
4:30am  -   -  16 18 mph 1010mb - 81f
4:20am  -   -  16 18 mph 1010mb - 82f
4:10am 1.3ft  -  13 16 mph 1010mb - 82f
4:00am 1.3ft 2s 13 18 mph 1010mb 84f 82f
3:50am 1.3ft  -  16 18 mph 1010.2mb - 82f
3:40am  -   -  16 16 mph 1010.3mb - 83f
3:30am  -   -  13 16 mph 1010.4mb - 83f
3:20am  -   -  13 16 mph 1010.4mb - 83f
3:10am 1.6ft  -  16 16 mph 1010.4mb - 83f
3:00am 1.6ft 2s 13 18 mph 1010.5mb 84f 84f
2:50am 1.6ft  -  13 18 mph 1010.5mb - 83f
2:40am  -   -  13 18 mph 1010.8mb - 83f
2:30am  -   -  13 16 mph 1010.9mb - 84f
2:20am  -   -  13 16 mph 1010.8mb - 84f
2:10am 1.3ft  -  13 16 mph 1010.8mb - 84f
2:00am 1.3ft 2s 13 18 mph 1010.9mb 85f 84f
1:50am 1.3ft  -  13 18 mph 1011mb - 84f
1:40am  -   -  13 16 mph 1010.8mb - 84f
1:30am  -   -  13 16 mph 1010.8mb - 84f
1:20am  -   -  13 16 mph 1010.9mb - 84f
1:10am 1ft  -  13 16 mph 1011mb - 85f
1:00am 1ft 2s 13 16 mph 1011mb 85f 85f
12:50am 1ft  -  11 16 mph 1011.1mb - 85f
12:40am  -   -  11 11 mph 1011.1mb - 85f
12:30am  -   -  11 13 mph 1011.1mb - 85f
12:20am  -   -  11 13 mph 1011.1mb - 85f
12:10am 0.7ft  -  11 13 mph 1011.1mb - 85f
12:00am 0.7ft  -  11 13 mph 1011.1mb 85f 85f
Fri 07/21 11:50pm 0.7ft  -  11 13 mph 1011.2mb - 85f
11:40pm  -   -  11 13 mph 1011.2mb - 85f
11:30pm  -   -  11 13 mph 1011.3mb - 85f
11:20pm  -   -  11 13 mph 1011.4mb - 85f
11:10pm 1ft  -  11 13 mph 1011.5mb - 85f
11:00pm 1ft 3s 11 13 mph 1011.5mb 85f 85f
10:50pm 1ft  -  11 13 mph 1011.5mb - 85f
10:40pm  -   -  11 13 mph 1011.5mb - 85f
10:30pm  -   -  11 13 mph 1011.6mb - 86f
10:20pm  -   -  13 16 mph 1011.8mb - 86f
10:10pm 1ft  -  13 16 mph 1011.8mb - 86f
10:00pm 1ft 2s 13 16 mph 1011.9mb 85f 86f
9:50pm 1ft  -  13 16 mph 1011.8mb - 86f
9:40pm  -   -  13 16 mph 1011.7mb - 86f
9:30pm  -   -  11 13 mph 1011.6mb - 86f
9:20pm  -   -  11 13 mph 1011.5mb - 86f
9:10pm 1ft  -  11 13 mph 1011.5mb - 86f
9:00pm 1ft 3s 9 11 mph 1011.4mb 85f 86f
8:50pm 1ft  -  9 11 mph 1011.4mb - 86f
8:40pm  -   -  9 11 mph 1011.3mb - 87f
8:30pm  -   -  9 11 mph 1011.3mb - 87f
8:20pm  -   -  11 13 mph 1011.1mb - 87f
8:10pm 1ft  -  11 13 mph 1011mb - 87f
8:00pm 1ft 2s 11 16 mph 1010.9mb 86f 87f
7:50pm 1ft  -  11 13 mph 1010.7mb - 87f
7:40pm  -   -  11 13 mph 1010.7mb - 86f
7:30pm  -   -  11 13 mph 1010.8mb - 86f
7:20pm  -   -  9 11 mph 1010.7mb - 86f
7:10pm 0.7ft  -  9 11 mph 1010.9mb - 87f
7:00pm 0.7ft  -  9 11 mph 1011mb 87f 87f
6:50pm 0.7ft  -  9 11 mph 1011.1mb - 87f
6:40pm  -   -  9 11 mph 1011.1mb - 87f
6:30pm  -   -  9 11 mph 1011.1mb - 88f
6:20pm  -   -  9 11 mph 1011.2mb - 88f
6:10pm 0.7ft  -  9 11 mph 1011.3mb - 88f
6:00pm 0.7ft  -  11 11 mph 1011.4mb 87f 88f
5:50pm  -   -  11 11 mph 1011.4mb - 87f
5:40pm  -   -  9 11 mph 1011.4mb - 87f
5:30pm  -   -  9 11 mph 1011.5mb - 88f
5:20pm  -   -  9 11 mph 1011.6mb - 88f
5:10pm  -   -  9 9 mph 1011.7mb - 88f
4:30pm  -   -  4 7 mph 1012mb - 88f
4:20pm  -   -  7 9 mph 1012mb - 88f
4:10pm 1ft  -  4 7 mph 1012mb - 88f
4:00pm 1ft  -   -  2 mph 1012.1mb 87f 89f
3:50pm 1ft  -   -  2 mph 1012.1mb - 89f
3:40pm  -   -   -  0 mph 1012.2mb - 88f
3:30pm  -   -   -  2 mph 1012.3mb - 88f
3:20pm  -   -   -  0 mph 1012.5mb - 88f
3:10pm 0.3ft  -   -  2 mph 1012.7mb - 87f
3:00pm 0.3ft  -   -  2 mph 1012.7mb 86f 87f
2:50pm 0.3ft  -   -  2 mph 1012.7mb - 87f
2:40pm  -   -   -  2 mph 1012.8mb - 87f
2:30pm  -   -  2 4 mph 1012.9mb - 86f
2:20pm  -   -  4 4 mph 1012.9mb - 86f
2:10pm 0.3ft  -  2 2 mph 1013.1mb - 86f
2:00pm 0.3ft  -  2 4 mph 1013mb 87f 86f
1:50pm 0.3ft  -  4 4 mph 1013mb - 86f
1:40pm  -   -  4 4 mph 1013.1mb - 86f
1:30pm  -   -  2 4 mph 1013.3mb - 86f
1:20pm  -   -  2 4 mph 1013.5mb - 86f
1:10pm 0.7ft  -  2 4 mph 1013.6mb - 86f
1:00pm 0.7ft  -  4 7 mph 1013.5mb 86f 85f
12:50pm  -   -  4 7 mph 1013.4mb - 85f
12:40pm  -   -  4 7 mph 1013.4mb - 85f
12:30pm  -   -  2 4 mph 1013.5mb - 86f
12:20pm  -   -  4 7 mph 1013.4mb - 85f
12:10pm 0.3ft  -  4 9 mph 1013.4mb - 85f
12:00pm 0.3ft  -  7 9 mph 1013.5mb 85f 85f
11:50am 0.3ft  -  9 11 mph 1013.7mb - 85f
11:40am  -   -  11 13 mph 1013.7mb - 85f
11:30am  -   -  11 13 mph 1013.7mb - 85f
11:20am  -   -  11 13 mph 1013.6mb - 85f
11:10am 0.7ft  -  9 13 mph 1013.6mb - 85f
11:00am 0.7ft  -  7 9 mph 1013.8mb 85f 85f
10:50am 0.7ft  -  7 9 mph 1013.8mb - 85f
10:40am  -   -  7 9 mph 1013.9mb - 85f
10:30am  -   -  7 9 mph 1013.8mb - 84f
10:20am  -   -  9 9 mph 1013.9mb - 84f
10:10am 0.7ft  -  9 9 mph 1013.9mb - 84f
10:00am 0.7ft  -  9 11 mph 1013.8mb 85f 84f
9:50am 0.7ft  -  9 9 mph 1013.7mb - 84f
9:40am  -   -  7 9 mph 1013.7mb - 84f
9:30am  -   -  7 9 mph 1013.6mb - 84f
9:20am  -   -  7 7 mph 1013.6mb - 83f
9:10am 0.7ft  -  7 7 mph 1013.6mb - 83f
9:00am 0.7ft  -  7 7 mph 1013.6mb 84f 83f
8:50am  -   -  7 9 mph 1013.6mb - 83f
8:40am  -   -  7 9 mph 1013.6mb - 82f
8:30am  -   -  7 9 mph 1013.6mb - 82f
8:20am  -   -  9 9 mph 1013.5mb - 82f
8:10am 0.7ft  -  9 9 mph 1013.5mb - 82f
8:00am 0.7ft  -  7 9 mph 1013.4mb 84f 82f
7:50am 0.7ft  -  9 9 mph 1013.3mb - 82f
7:40am  -   -  9 9 mph 1013.1mb - 82f
7:30am  -   -  9 9 mph 1013mb - 82f
7:20am  -   -  7 9 mph 1012.9mb - 82f
7:10am 0.7ft  -  7 9 mph 1012.7mb - 82f
7:00am 1ft 2s 7 9 mph 1012.6mb 84f 82f
6:50am 0.7ft  -  9 9 mph 1012.5mb - 82f
6:40am  -   -  9 11 mph 1012.4mb - 82f
6:30am  -   -  9 11 mph 1012.4mb - 82f
6:20am  -   -  9 9 mph 1012.3mb - 82f
6:10am 1ft  -  9 9 mph 1012.2mb - 82f
6:00am 1ft 2s 9 9 mph 1012.2mb 84f 82f
5:50am 1ft  -  9 11 mph 1012.3mb - 82f
5:40am  -   -  11 13 mph 1012.1mb - 82f
5:30am  -   -  11 13 mph 1012mb - 82f
5:20am  -   -  11 16 mph 1012mb - 82f
5:10am 1.3ft  -  13 16 mph 1012mb - 82f
5:00am 1.3ft 3s 13 16 mph 1011.9mb 84f 82f
4:50am  -   -  13 16 mph 1011.9mb - 82f
4:40am  -   -  13 16 mph 1011.9mb - 82f
4:30am  -   -  13 18 mph 1011.9mb - 82f
4:20am  -   -  13 18 mph 1011.8mb - 82f
4:10am 1.3ft  -  13 16 mph 1011.9mb - 82f
4:00am 1.3ft 3s 16 18 mph 1011.8mb 84f 82f
3:50am 1.3ft  -  16 18 mph 1011.8mb - 82f
3:40am  -   -  13 16 mph 1011.8mb - 82f
3:30am  -   -  13 16 mph 1011.9mb - 82f
3:20am  -   -  13 16 mph 1012mb - 82f
3:10am 1.3ft  -  13 18 mph 1012.1mb - 83f
3:00am 1.3ft 2s 13 16 mph 1012.2mb 84f 83f
2:50am 1.3ft  -  13 18 mph 1012.3mb - 82f
2:40am  -   -  13 16 mph 1012.4mb - 82f
2:30am  -   -  13 18 mph 1012.4mb - 82f
2:20am  -   -  13 16 mph 1012.5mb - 83f
2:10am 1.6ft  -  16 18 mph 1012.5mb - 83f
2:00am 1.6ft 2s 16 18 mph 1012.5mb 84f 83f
1:50am 1.6ft  -  16 18 mph 1012.5mb - 83f
1:40am  -   -  16 18 mph 1012.5mb - 83f
1:30am  -   -  16 18 mph 1012.5mb - 83f
1:20am  -   -  16 18 mph 1012.6mb - 83f
1:10am 1.6ft  -  18 20 mph 1012.8mb - 84f
1:00am 1.6ft 2s 16 20 mph 1012.8mb 84f 84f
12:50am  -   -  18 20 mph 1012.8mb - 84f
12:40am  -   -  16 18 mph 1012.9mb - 84f
12:30am  -   -  16 18 mph 1012.9mb - 84f
12:20am  -   -  16 18 mph 1012.9mb - 84f
12:10am 1.3ft  -  13 18 mph 1012.9mb - 84f
12:00am 1.3ft 2s 13 18 mph 1012.9mb 84f 84f
Thu 07/20 11:50pm 1.3ft  -  13 18 mph 1012.9mb - 84f
11:40pm  -   -  13 16 mph 1012.9mb - 84f
11:30pm  -   -  13 16 mph 1012.9mb - 84f
11:20pm  -   -  13 16 mph 1012.9mb - 84f
11:10pm 1.3ft  -  13 16 mph 1012.9mb - 84f
11:00pm 1.3ft 2s 13 16 mph 1012.8mb 84f 84f
10:50pm  -   -  11 13 mph 1012.8mb - 84f
10:40pm  -   -  11 16 mph 1012.9mb - 84f
10:30pm  -   -  11 13 mph 1012.8mb - 84f
10:20pm  -   -  11 16 mph 1012.8mb - 84f
10:10pm 1.3ft  -  11 13 mph 1012.7mb - 84f
10:00pm 1.3ft 3s 11 13 mph 1012.6mb 85f 84f
9:50pm 1.3ft  -  11 13 mph 1012.6mb - 84f
9:40pm  -   -  11 13 mph 1012.6mb - 84f
9:30pm  -   -  11 13 mph 1012.5mb - 84f
9:20pm  -   -  11 13 mph 1012.5mb - 84f
9:10pm 1.3ft  -  11 16 mph 1012.5mb - 84f
9:00pm 1.3ft 2s 11 13 mph 1012.4mb 85f 84f
8:50pm 1.3ft  -  13 16 mph 1012.4mb - 84f
8:40pm  -   -  13 16 mph 1012.4mb - 84f
8:30pm  -   -  16 18 mph 1012.3mb - 84f
8:20pm  -   -  13 16 mph 1012.4mb - 84f
8:10pm 1.3ft  -  13 16 mph 1012.5mb - 84f
8:00pm 1.3ft 2s 13 16 mph 1012.5mb 85f 84f
7:50pm 1.3ft  -  13 18 mph 1012.4mb - 85f
7:40pm  -   -  13 16 mph 1012.3mb - 85f
7:30pm  -   -  13 16 mph 1012.1mb - 84f
7:20pm  -   -  11 16 mph 1012.1mb - 84f
7:10pm 1ft  -  13 16 mph 1012.1mb - 84f
7:00pm 1ft 2s 13 16 mph 1012.2mb 85f 83f
6:50pm 1ft  -  13 18 mph 1012.2mb - 83f
6:40pm  -   -  13 16 mph 1012.2mb - 83f
6:30pm  -   -  13 18 mph 1012.4mb - 83f
6:20pm  -   -  16 20 mph 1012.6mb - 82f
6:10pm 1.6ft  -  18 25 mph 1012.7mb - 82f
6:00pm 1.6ft 3s 16 20 mph 1012.5mb 85f 84f
5:50pm 1.6ft  -  13 18 mph 1012.3mb - 84f
5:40pm  -   -  16 20 mph 1012.3mb - 84f
5:30pm  -   -  18 20 mph 1012.4mb - 84f
5:20pm  -   -  18 22 mph 1012.5mb - 83f
5:10pm 1.6ft  -  20 25 mph 1012.7mb - 83f
5:00pm 1.6ft 3s 18 22 mph 1013.2mb 86f 84f
4:50pm 1.6ft  -  20 29 mph 1013.4mb - 83f
4:40pm  -   -  25 36 mph 1013.9mb - 83f
4:30pm  -   -  18 38 mph 1013.8mb - 87f
4:20pm  -   -  11 13 mph 1013.3mb - 87f
4:10pm 1.3ft  -  11 13 mph 1013.4mb - 87f
4:00pm 1.3ft 3s 11 13 mph 1013.5mb 86f 87f
3:50pm 1.3ft  -  13 16 mph 1013.6mb - 87f
3:40pm  -   -  13 16 mph 1013.5mb - 87f
3:30pm  -   -  11 13 mph 1013.5mb - 87f
3:20pm  -   -  11 13 mph 1013.6mb - 87f
3:10pm 0.7ft  -  11 13 mph 1013.7mb - 88f
3:00pm 0.7ft  -  11 13 mph 1013.9mb 87f 87f
2:50pm 0.7ft  -  11 13 mph 1014.1mb - 87f
2:40pm  -   -  11 13 mph 1014.2mb - 86f
2:30pm  -   -  11 13 mph 1014.2mb - 86f
2:20pm  -   -  11 11 mph 1014.3mb - 86f
2:10pm 0.3ft  -  9 11 mph 1014.4mb - 86f
2:00pm 0.3ft  -  4 9 mph 1014.7mb 88f 86f
1:50pm 0.3ft  -  2 4 mph 1014.8mb - 86f
1:40pm  -   -  2 2 mph 1015mb - 86f
1:30pm  -   -  2 4 mph 1015mb - 86f
1:20pm  -   -  2 4 mph 1015mb - 87f
1:10pm 0.3ft  -  2 4 mph 1014.9mb - 87f
1:00pm 0.3ft  -   -  2 mph 1014.9mb 87f 87f
12:50pm  -   -   -  0 mph 1015mb - 87f
12:40pm  -   -   -  2 mph 1015.2mb - 86f
12:30pm  -   -   -  0 mph 1015.4mb - 85f
12:20pm  -   -   -  2 mph 1015.5mb - 85f
12:10pm 0.3ft  -   -  2 mph 1015.6mb - 85f
12:00pm 0.3ft  -   -  2 mph 1015.7mb 86f 84f
11:50am 0.3ft  -  2 4 mph 1015.8mb - 84f
11:40am  -   -  2 4 mph 1015.9mb - 84f
11:30am  -   -  2 4 mph 1015.9mb - 83f
11:20am  -   -  2 4 mph 1015.9mb - 83f
11:10am 0.7ft  -  2 4 mph 1016mb - 83f
11:00am 0.7ft  -  4 4 mph 1016.1mb 85f 83f
10:50am  -   -  7 7 mph 1016.2mb - 83f
10:40am  -   -  7 9 mph 1016.3mb - 83f
10:30am  -   -  9 9 mph 1016.2mb - 83f
10:20am  -   -  9 11 mph 1016.1mb - 83f
10:10am 0.7ft  -  11 11 mph 1016.1mb - 83f
10:00am 0.7ft  -  9 11 mph 1016mb 84f 83f
9:50am 0.7ft  -  9 11 mph 1015.9mb - 83f
9:40am  -   -  9 11 mph 1015.9mb - 83f
9:30am  -   -  9 11 mph 1015.9mb - 82f
9:20am  -   -  9 9 mph 1015.8mb - 82f
9:10am 1ft  -  9 11 mph 1015.8mb - 82f
9:00am 1ft 2s 9 11 mph 1015.7mb 84f 82f
8:50am 1ft  -  11 11 mph 1015.8mb - 82f
8:40am  -   -  11 11 mph 1015.7mb - 82f
8:30am  -   -  9 11 mph 1015.6mb - 82f
8:20am  -   -  11 13 mph 1015.7mb - 81f
8:10am 1ft  -  11 13 mph 1015.8mb - 81f
8:00am 1ft 2s 11 13 mph 1015.9mb 84f 81f
7:50am 1ft  -  11 13 mph 1015.9mb - 81f
7:40am  -   -  11 13 mph 1015.8mb - 81f
7:30am  -   -  11 13 mph 1015.7mb - 81f
7:20am  -   -  11 13 mph 1015.5mb - 81f
7:10am 1ft  -  11 13 mph 1015.4mb - 81f
7:00am 1ft 2s 11 13 mph 1015.4mb 84f 81f
6:50am  -   -  11 13 mph 1015.4mb - 81f
6:40am  -   -  11 13 mph 1015.3mb - 81f
6:30am  -   -  11 13 mph 1015.3mb - 81f
6:20am  -   -  11 13 mph 1015.1mb - 81f
6:10am 1ft  -  11 13 mph 1015mb - 81f
6:00am 1ft 2s 11 13 mph 1015mb 84f 81f
5:50am  -   -  11 13 mph 1015mb - 80f
5:40am  -   -  11 13 mph 1015.1mb - 80f
5:30am  -   -  11 11 mph 1015.2mb - 81f
5:20am  -   -  11 13 mph 1015.3mb - 81f
5:10am 1ft  -  11 13 mph 1015.4mb - 81f
5:00am 1ft 3s 11 13 mph 1015.3mb 84f 81f
4:50am  -   -  11 13 mph 1015.3mb - 81f
4:40am  -   -  11 13 mph 1015.2mb - 81f
4:30am  -   -  11 13 mph 1015.3mb - 81f
4:20am  -   -  11 13 mph 1015.3mb - 81f
4:10am 1.3ft  -  11 13 mph 1015.3mb - 81f
4:00am 1.3ft 3s 11 13 mph 1015.4mb 84f 81f
3:50am  -   -  11 16 mph 1015.4mb - 81f
3:40am  -   -  13 16 mph 1015.3mb - 81f
3:30am  -   -  13 16 mph 1015.3mb - 81f
3:20am  -   -  13 16 mph 1015.3mb - 81f
3:10am 1ft  -  13 16 mph 1015.3mb - 82f
3:00am 1ft 3s 11 13 mph 1015.5mb 84f 82f
2:50am 1ft  -  13 16 mph 1015.5mb - 82f
2:40am  -   -  11 13 mph 1015.6mb - 82f
2:30am  -   -  11 16 mph 1015.7mb - 81f
2:20am  -   -  11 13 mph 1015.9mb - 81f
2:10am 1ft  -  11 13 mph 1015.8mb - 81f
2:00am 1ft 2s 11 13 mph 1015.9mb 84f 81f
1:50am 1ft  -  11 13 mph 1015.9mb - 81f
1:40am  -   -  13 13 mph 1015.9mb - 82f
1:30am  -   -  11 16 mph 1016mb - 82f
1:20am  -   -  11 13 mph 1016mb - 82f
1:10am 1ft  -  11 13 mph 1016mb - 82f
1:00am 1ft 2s 11 16 mph 1016.1mb 84f 82f
12:50am  -   -  11 16 mph 1016.2mb - 82f
12:40am  -   -  13 16 mph 1016.2mb - 82f
12:30am  -   -  11 16 mph 1016.2mb - 82f
12:20am  -   -  13 16 mph 1016.2mb - 82f
12:10am 1.3ft  -  11 13 mph 1016.3mb - 82f
12:00am 1.3ft 2s 13 16 mph 1016.1mb 84f 82f
Wed 07/19 11:50pm 1.3ft  -  11 13 mph 1016mb - 82f
11:40pm  -   -  11 16 mph 1016.1mb - 82f
11:30pm  -   -  13 13 mph 1016.1mb - 82f
11:20pm  -   -  13 16 mph 1016.1mb - 82f
11:10pm 1ft  -  13 16 mph 1016.2mb - 82f
11:00pm 1ft 2s 13 16 mph 1016.3mb 84f 83f
10:50pm  -   -  13 16 mph 1016.4mb - 83f
10:40pm  -   -  13 16 mph 1016.5mb - 83f
10:30pm  -   -  13 16 mph 1016.6mb - 83f
10:20pm  -   -  11 13 mph 1016.6mb - 83f
10:10pm 1ft  -  13 16 mph 1016.7mb - 83f
10:00pm 1ft 2s 13 16 mph 1016.6mb 84f 83f
9:50pm 1ft  -  11 13 mph 1016.5mb - 83f
9:40pm  -   -  11 13 mph 1016.4mb - 83f
9:30pm  -   -  11 13 mph 1016.3mb - 83f
9:20pm  -   -  11 16 mph 1016.2mb - 84f
9:10pm 0.7ft  -  13 16 mph 1016.1mb - 84f
9:00pm 0.7ft  -  13 16 mph 1016mb 85f 84f
8:50pm 0.7ft  -  13 16 mph 1015.9mb - 84f
8:40pm  -   -  13 16 mph 1015.9mb - 84f
8:30pm  -   -  13 13 mph 1015.8mb - 85f
8:20pm  -   -  13 16 mph 1015.8mb - 85f
8:10pm 0.7ft  -  11 16 mph 1015.8mb - 85f
8:00pm 0.7ft  -  11 13 mph 1015.7mb 85f 86f
7:50pm  -   -  11 13 mph 1015.6mb - 86f
7:40pm  -   -  11 13 mph 1015.6mb - 87f
7:30pm  -   -  9 11 mph 1015.5mb - 87f
7:20pm  -   -  9 9 mph 1015.5mb - 87f
7:10pm 0.7ft  -  9 11 mph 1015.4mb - 87f
7:00pm 1ft 3s 9 11 mph 1015.2mb 86f 87f
6:50pm  -   -  11 11 mph 1015.3mb - 87f
6:40pm  -   -  9 11 mph 1015.3mb - 86f
6:30pm  -   -  11 11 mph 1015.2mb - 86f
6:20pm  -   -  11 13 mph 1015.2mb - 87f
6:10pm 1ft  -  11 11 mph 1015.3mb - 86f
6:00pm 1ft 2s 9 11 mph 1015.3mb 85f 86f
5:50pm  -   -  9 11 mph 1015.3mb - 86f
5:40pm  -   -  9 9 mph 1015.3mb - 86f
5:30pm  -   -  9 9 mph 1015.5mb - 86f
5:20pm  -   -  9 11 mph 1015.5mb - 86f
5:10pm 1ft  -  9 11 mph 1015.6mb - 86f
5:00pm 1ft 2s 9 11 mph 1015.6mb 85f 86f
4:50pm  -   -  9 11 mph 1015.5mb - 85f
4:40pm  -   -  9 11 mph 1015.6mb - 85f
4:30pm  -   -  9 11 mph 1015.6mb - 85f
4:20pm  -   -  11 11 mph 1015.7mb - 85f
4:10pm 1ft  -  11 11 mph 1015.9mb - 85f
4:00pm 1ft 3s 11 13 mph 1016.1mb 85f 85f
3:50pm  -   -  11 13 mph 1016.1mb - 85f
3:40pm  -   -  11 13 mph 1016.2mb - 85f
3:30pm  -   -  11 16 mph 1016.2mb - 85f
3:20pm  -   -  11 13 mph 1016.2mb - 84f
3:10pm 1ft  -  11 13 mph 1016.4mb - 84f
3:00pm 1ft 2s 11 13 mph 1016.5mb 86f 84f
2:50pm 1ft  -  9 11 mph 1016.6mb - 84f
2:40pm  -   -  9 11 mph 1016.6mb - 84f
2:30pm  -   -  9 13 mph 1016.7mb - 84f
2:20pm  -   -  9 11 mph 1016.8mb - 84f
2:10pm 0.7ft  -  9 11 mph 1016.9mb - 84f
2:00pm 0.7ft  -  9 9 mph 1017mb 86f 83f
1:50pm 0.7ft  -  9 11 mph 1017.1mb - 83f
1:40pm  -   -  9 11 mph 1017.2mb - 83f
1:30pm  -   -  9 11 mph 1017.3mb - 83f
1:20pm  -   -  9 11 mph 1017.3mb - 83f
1:10pm 0.3ft  -  9 11 mph 1017.3mb - 83f
1:00pm 0.3ft  -  9 11 mph 1017.3mb 86f 83f
12:50pm  -   -  7 9 mph 1017.3mb - 83f
12:40pm  -   -  2 4 mph 1017.4mb - 83f
12:30pm  -   -   -  2 mph 1017.4mb - 83f
12:20pm  -   -   -  2 mph 1017.4mb - 83f
12:10pm 0.3ft  -   -  2 mph 1017.5mb - 83f
12:00pm 0.3ft  -   -  0 mph 1017.7mb 86f 83f
11:50am  -   -   -  2 mph 1017.7mb - 83f
11:40am  -   -   -  2 mph 1017.8mb - 82f
11:30am  -   -   -  2 mph 1017.9mb - 81f
11:20am  -   -  2 4 mph 1017.9mb - 81f
11:10am 0.3ft  -  2 4 mph 1017.9mb - 81f
11:00am 0.3ft  -  4 7 mph 1017.9mb 84f 80f
10:50am 0.3ft  -  4 7 mph 1017.9mb - 80f
10:40am  -   -  4 4 mph 1017.8mb - 80f
10:30am  -   -  4 7 mph 1017.8mb - 80f
10:20am  -   -  4 7 mph 1017.8mb - 80f
10:10am 0.3ft  -  7 9 mph 1017.9mb - 80f
10:00am 0.3ft  -  7 9 mph 1018mb 84f 79f
9:50am 0.3ft  -  7 9 mph 1018mb - 79f
9:40am  -   -  7 9 mph 1018mb - 79f
9:30am  -   -  9 11 mph 1018mb - 79f
9:20am  -   -  9 11 mph 1017.9mb - 79f
9:10am 0.3ft  -  9 9 mph 1017.9mb - 79f
9:00am 0.3ft  -  9 11 mph 1017.9mb 83f 79f
8:50am 0.3ft  -  7 9 mph 1017.9mb - 79f
8:40am  -   -  7 9 mph 1017.9mb - 79f
8:30am  -   -  7 9 mph 1017.9mb - 79f
8:20am  -   -  7 9 mph 1017.8mb - 79f
8:10am 0.7ft  -  7 9 mph 1017.8mb - 79f
8:00am 0.7ft  -  7 11 mph 1017.8mb 83f 79f
7:50am 0.7ft  -  7 11 mph 1017.7mb - 79f
7:40am  -   -  7 9 mph 1017.6mb - 79f
7:30am  -   -  7 9 mph 1017.5mb - 79f
7:20am  -   -  7 9 mph 1017.5mb - 78f
7:10am 0.7ft  -  7 7 mph 1017.4mb - 78f
7:00am 1ft 2s 7 9 mph 1017.4mb 83f 78f
6:50am 0.7ft  -  7 9 mph 1017.4mb - 78f
6:40am  -   -  7 9 mph 1017.3mb - 77f
6:30am  -   -  7 9 mph 1017.2mb - 77f
6:20am  -   -  7 9 mph 1017.2mb - 77f
6:10am 0.7ft  -  9 11 mph 1017.2mb - 77f
6:00am 0.7ft  -  9 11 mph 1017.2mb 83f 77f
5:50am 0.7ft  -  9 11 mph 1017.1mb - 77f
5:40am  -   -  7 9 mph 1017.1mb - 77f
5:30am  -   -  7 9 mph 1017.2mb - 77f
5:20am  -   -  7 9 mph 1017.1mb - 77f
5:10am 1ft  -  7 9 mph 1017.2mb - 78f
5:00am 1ft 2s 9 11 mph 1017.2mb 83f 78f
4:50am  -   -  9 11 mph 1017.1mb - 78f
4:40am  -   -  9 11 mph 1017mb - 78f
4:30am  -   -  11 11 mph 1017.1mb - 78f
4:20am  -   -  11 11 mph 1017.1mb - 78f
4:10am 1ft  -  9 11 mph 1017.1mb - 78f
4:00am 1ft 2s 11 13 mph 1017.1mb 83f 78f
3:50am 1ft  -  11 13 mph 1017.2mb - 78f
3:40am  -   -  11 13 mph 1017.3mb - 78f
3:30am  -   -  11 13 mph 1017.4mb - 78f
3:20am  -   -  11 13 mph 1017.4mb - 78f
3:10am 0.7ft  -  11 13 mph 1017.5mb - 79f
3:00am 1ft 3s 11 13 mph 1017.4mb 83f 79f
2:50am 0.7ft  -  11 11 mph 1017.5mb - 79f
2:40am  -   -  11 13 mph 1017.4mb - 79f
2:30am  -   -  9 11 mph 1017.5mb - 79f
2:20am  -   -  9 11 mph 1017.4mb - 79f
2:10am 0.7ft  -  9 11 mph 1017.5mb - 79f
2:00am 0.7ft  -  9 11 mph 1017.5mb 83f 79f
1:50am 0.7ft  -  9 11 mph 1017.5mb - 79f
1:40am  -   -  9 11 mph 1017.6mb - 79f
1:30am  -   -  9 11 mph 1017.6mb - 79f
1:20am  -   -  9 11 mph 1017.7mb - 79f
1:10am 0.7ft  -  9 11 mph 1017.8mb - 80f
1:00am 0.7ft  -  9 11 mph 1017.7mb 83f 80f
12:50am 0.7ft  -  9 11 mph 1017.8mb - 80f
12:40am  -   -  9 11 mph 1017.8mb - 80f
12:30am  -   -  9 11 mph 1017.7mb - 80f
12:20am  -   -  9 11 mph 1017.8mb - 81f
12:10am 1ft  -  7 9 mph 1017.8mb - 81f
12:00am 1ft 2s 9 9 mph 1017.8mb 83f 81f
Tue 07/18 11:50pm 1ft  -  9 11 mph 1017.8mb - 81f
11:40pm  -   -  11 13 mph 1017.8mb - 81f
11:30pm  -   -  11 11 mph 1017.9mb - 81f
11:20pm  -   -  11 11 mph 1018mb - 81f
11:10pm 1ft  -  9 11 mph 1018mb - 81f
11:00pm 1ft 2s 11 11 mph 1017.9mb 84f 81f
10:50pm  -   -  11 11 mph 1017.9mb - 81f
10:40pm  -   -  11 13 mph 1017.8mb - 81f
10:30pm  -   -  11 13 mph 1017.8mb - 81f
10:20pm  -   -  11 13 mph 1017.9mb - 81f
10:10pm 1ft  -  11 13 mph 1017.8mb - 81f